Time;durP1;ratioP1;P1;durP2;ratioP2;P2;SDS_P1;SDS_P2;PMS_P1;PMS_P2;Temp;Humidity;BMP_temperature;BMP_pressure;BME280_temperature;BME280_humidity;BME280_pressure;Samples;Min_cycle;Max_cycle;Signal;HPM_P1;HPM_P2
2022/08/12 00:44:25;;;;;;;5.20;1.50;;;19.00;99.90;;;;;;5016470;28;20053;-53
2022/08/12 00:46:57;;;;;;;4.32;1.67;;;19.00;99.90;;;;;;5025863;28;20049;-57
2022/08/12 00:49:24;;;;;;;2.10;1.40;;;19.00;99.90;;;;;;5026643;28;20116;-56
2022/08/12 00:52:06;;;;;;;1.98;1.50;;;18.90;99.90;;;;;;5025333;28;20049;-52
2022/08/12 00:54:37;;;;;;;3.47;1.50;;;19.00;99.90;;;;;;5016586;28;20499;-57
2022/08/12 00:57:08;;;;;;;4.47;1.65;;;19.00;99.90;;;;;;5007300;28;20053;-59
2022/08/12 00:59:35;;;;;;;4.05;1.52;;;19.00;99.90;;;;;;5008743;28;20041;-50
2022/08/12 01:02:04;;;;;;;5.45;1.65;;;18.90;99.90;;;;;;5007385;28;20084;-57
2022/08/12 01:12:46;;;;;;;5.68;1.63;;;18.90;99.90;;;;;;5011519;28;20602;-55
2022/08/12 01:15:12;;;;;;;2.85;1.40;;;18.80;99.90;;;;;;5028296;28;20049;-59
2022/08/12 01:17:43;;;;;;;3.53;1.55;;;18.80;99.90;;;;;;5011441;28;20046;-55
2022/08/12 01:20:18;;;;;;;2.30;1.95;;;18.70;99.90;;;;;;5029982;28;20052;-53
2022/08/12 01:23:01;;;;;;;2.78;1.38;;;18.70;99.90;;;;;;5026694;28;20061;-58
2022/08/12 01:25:32;;;;;;;6.88;1.52;;;18.60;99.90;;;;;;5028710;28;20053;-58
2022/08/12 01:28:01;;;;;;;2.97;1.33;;;18.60;99.90;;;;;;5027406;28;20396;-65
2022/08/12 01:30:32;;;;;;;8.43;1.30;;;18.50;99.90;;;;;;5029203;28;20458;-52
2022/08/12 01:33:01;;;;;;;3.08;1.42;;;18.60;99.90;;;;;;5010898;28;20095;-62
2022/08/12 01:35:30;;;;;;;2.10;1.30;;;18.50;99.90;;;;;;5028480;28;20041;-54
2022/08/12 01:38:03;;;;;;;7.32;1.63;;;18.50;99.90;;;;;;5011404;28;20378;-53
2022/08/12 01:40:37;;;;;;;4.13;1.75;;;18.50;99.90;;;;;;5029227;28;20453;-54
2022/08/12 01:43:08;;;;;;;8.18;1.92;;;18.40;99.90;;;;;;5029090;28;20131;-51
2022/08/12 01:45:46;;;;;;;4.28;1.90;;;18.50;99.90;;;;;;5023118;28;20073;-56
2022/08/12 01:48:28;;;;;;;5.28;1.83;;;18.40;99.90;;;;;;5025127;28;20045;-57
2022/08/12 01:51:30;;;;;;;4.30;1.83;;;18.40;99.90;;;;;;5029656;28;20480;-56
2022/08/12 01:54:11;;;;;;;3.47;1.63;;;18.40;99.90;;;;;;5015390;28;20419;-59
2022/08/12 01:56:51;;;;;;;1.95;1.50;;;18.40;99.90;;;;;;5002440;28;20041;-55
2022/08/12 01:59:45;;;;;;;2.22;1.45;;;18.30;99.90;;;;;;5029829;28;20492;-59
2022/08/12 02:02:15;;;;;;;3.28;1.50;;;18.30;99.90;;;;;;5028686;28;20067;-54
2022/08/12 02:11:17;;;;;;;9.05;1.95;;;18.00;99.90;;;;;;4992862;28;20050;-60
2022/08/12 02:13:48;;;;;;;3.75;1.50;;;18.00;99.90;;;;;;5009066;28;20092;-57
2022/08/12 02:16:45;;;;;;;3.38;1.38;;;18.00;99.90;;;;;;5009635;28;20057;-55
2022/08/12 02:19:42;;;;;;;3.70;1.83;;;18.00;99.90;;;;;;4981058;28;20354;-52
2022/08/12 02:22:19;;;;;;;4.57;1.63;;;18.00;99.90;;;;;;5000908;28;20049;-50
2022/08/12 02:24:47;;;;;;;3.05;1.58;;;18.00;99.90;;;;;;5008950;28;20053;-65
2022/08/12 02:27:16;;;;;;;8.15;1.92;;;18.00;99.90;;;;;;4991184;28;20135;-55
2022/08/12 02:29:42;;;;;;;1.30;1.25;;;18.00;99.90;;;;;;5008876;28;20049;-62
2022/08/12 02:32:08;;;;;;;3.30;1.48;;;18.00;99.90;;;;;;4999156;28;20511;-57
2022/08/12 02:34:35;;;;;;;3.70;1.25;;;18.10;99.90;;;;;;5009216;28;20444;-54
2022/08/12 02:37:02;;;;;;;2.40;1.30;;;18.10;99.90;;;;;;4990741;28;20061;-63
2022/08/12 02:39:32;;;;;;;4.22;1.35;;;18.10;99.90;;;;;;5008831;28;20049;-50
2022/08/12 02:42:03;;;;;;;2.85;1.70;;;18.10;99.90;;;;;;5006833;28;20049;-50
2022/08/12 02:44:36;;;;;;;6.43;1.58;;;18.10;99.90;;;;;;4990217;28;20049;-60
2022/08/12 02:47:05;;;;;;;5.13;1.77;;;18.10;99.90;;;;;;4991642;28;20397;-61
2022/08/12 02:49:38;;;;;;;2.40;1.23;;;18.10;99.90;;;;;;5008192;28;20420;-52
2022/08/12 02:52:06;;;;;;;3.47;1.40;;;18.10;99.90;;;;;;5006788;28;20285;-54
2022/08/12 02:54:33;;;;;;;1.88;1.50;;;18.10;99.90;;;;;;5008478;28;20117;-51
2022/08/12 02:56:59;;;;;;;2.03;1.30;;;18.00;99.90;;;;;;5007985;28;20053;-57
2022/08/12 02:59:26;;;;;;;6.70;1.52;;;18.00;99.90;;;;;;5008609;28;20049;-59
2022/08/12 03:01:59;;;;;;;5.03;1.60;;;18.00;99.90;;;;;;5001351;28;20048;-53
2022/08/12 03:04:52;;;;;;;2.28;1.60;;;18.00;99.90;;;;;;5009026;28;20987;-57
2022/08/12 03:07:25;;;;;;;3.45;1.25;;;18.00;99.90;;;;;;5007649;28;20496;-57
2022/08/12 03:09:56;;;;;;;4.22;1.33;;;18.00;99.90;;;;;;5007612;28;20053;-60
2022/08/12 03:12:24;;;;;;;2.70;1.20;;;18.00;99.90;;;;;;5007594;28;20553;-57
2022/08/12 03:14:52;;;;;;;3.10;1.40;;;18.00;99.90;;;;;;5007061;28;20077;-57
2022/08/12 03:17:42;;;;;;;3.42;1.58;;;18.00;99.90;;;;;;5008752;28;20045;-60
2022/08/12 03:20:10;;;;;;;7.38;1.85;;;18.00;99.90;;;;;;4979237;28;20081;-51
2022/08/12 03:22:40;;;;;;;10.77;2.47;;;18.00;99.90;;;;;;5006526;28;20129;-59
2022/08/12 03:25:16;;;;;;;2.28;1.23;;;18.00;99.90;;;;;;5007715;28;20128;-58
2022/08/12 03:27:50;;;;;;;4.00;2.00;;;18.00;99.90;;;;;;5007527;28;20053;-62
2022/08/12 03:30:19;;;;;;;3.88;1.10;;;18.00;99.90;;;;;;5006623;28;20042;-59
2022/08/12 03:32:47;;;;;;;1.92;1.40;;;18.00;99.90;;;;;;5003461;28;20119;-61
2022/08/12 03:35:23;;;;;;;16.48;4.20;;;18.00;99.90;;;;;;5007555;28;20445;-63
2022/08/12 03:37:49;;;;;;;4.50;1.42;;;18.00;99.90;;;;;;5007812;28;20037;-54
2022/08/12 03:41:33;;;;;;;4.97;1.50;;;18.00;99.90;;;;;;5007053;28;20081;-59
2022/08/12 04:02:25;;;;;;;4.55;1.48;;;17.60;99.90;;;;;;5005373;28;20081;-55
2022/08/12 04:04:50;;;;;;;4.30;1.30;;;17.60;99.90;;;;;;5010553;28;20152;-60
2022/08/12 04:07:16;;;;;;;2.58;1.30;;;17.50;99.90;;;;;;5025607;28;20129;-56
2022/08/12 04:09:44;;;;;;;1.30;1.30;;;17.50;99.90;;;;;;5009543;28;20052;-58
2022/08/12 04:14:57;;;;;;;2.10;1.30;;;17.40;99.90;;;;;;5025252;28;20049;-64
2022/08/12 04:17:26;;;;;;;5.63;1.40;;;17.40;99.90;;;;;;5024886;28;20115;-57
2022/08/12 04:19:55;;;;;;;5.07;1.50;;;17.40;99.90;;;;;;5026169;28;20045;-62
2022/08/12 04:22:24;;;;;;;6.68;1.38;;;17.40;99.90;;;;;;5027487;28;20064;-57
2022/08/12 04:24:52;;;;;;;5.45;1.73;;;17.40;99.90;;;;;;5000333;28;20049;-52
2022/08/12 04:27:18;;;;;;;6.43;1.67;;;17.40;99.90;;;;;;5026570;28;20041;-61
2022/08/12 04:29:44;;;;;;;4.13;1.42;;;17.40;99.90;;;;;;4992512;28;20057;-59
2022/08/12 04:32:10;;;;;;;5.18;1.40;;;17.40;99.90;;;;;;5025703;28;20120;-59
2022/08/12 04:34:37;;;;;;;4.70;1.23;;;17.40;99.90;;;;;;5007265;28;20067;-58
2022/08/12 04:37:03;;;;;;;2.30;1.20;;;17.40;99.90;;;;;;5025278;28;20543;-58
2022/08/12 04:39:29;;;;;;;4.20;1.55;;;17.40;99.90;;;;;;5026929;28;20077;-58
2022/08/12 04:41:56;;;;;;;3.13;1.50;;;17.40;99.90;;;;;;5024690;28;20116;-56
2022/08/12 04:44:22;;;;;;;7.45;1.70;;;17.40;99.90;;;;;;5024233;28;20112;-61
2022/08/12 04:46:47;;;;;;;4.30;1.50;;;17.50;99.90;;;;;;5024641;28;20133;-54
2022/08/12 04:49:13;;;;;;;6.80;1.35;;;17.50;99.90;;;;;;5026108;28;20048;-61
2022/08/12 04:51:40;;;;;;;1.50;1.27;;;17.50;99.90;;;;;;5026446;28;20061;-61
2022/08/12 04:54:06;;;;;;;1.52;1.35;;;17.50;99.90;;;;;;5007958;28;20060;-61
2022/08/12 04:56:32;;;;;;;1.60;1.50;;;17.50;99.90;;;;;;5023952;28;20053;-60
2022/08/12 04:58:59;;;;;;;7.78;1.60;;;17.50;99.90;;;;;;5025324;28;20053;-63
2022/08/12 05:01:29;;;;;;;2.80;1.40;;;17.60;99.90;;;;;;5009209;28;20045;-59
2022/08/12 05:03:56;;;;;;;9.02;2.10;;;17.70;99.90;;;;;;5025897;28;20179;-53
2022/08/12 05:06:28;;;;;;;6.32;2.33;;;17.80;99.90;;;;;;5024595;28;20045;-53
2022/08/12 05:08:54;;;;;;;8.90;1.98;;;17.80;99.90;;;;;;5026066;28;20053;-64
2022/08/12 05:11:23;;;;;;;1.67;1.30;;;17.90;99.90;;;;;;5025180;28;20037;-51
2022/08/12 05:13:51;;;;;;;9.50;1.83;;;17.90;99.90;;;;;;5008790;28;20050;-65
2022/08/12 05:16:16;;;;;;;5.60;1.80;;;17.90;99.90;;;;;;4988074;28;20929;-55
2022/08/12 05:18:42;;;;;;;2.47;1.60;;;18.00;99.90;;;;;;5026628;28;20053;-53
2022/08/12 05:21:08;;;;;;;9.00;1.60;;;18.00;99.90;;;;;;5025286;28;20091;-52
2022/08/12 05:23:39;;;;;;;3.17;1.48;;;18.00;99.90;;;;;;5008756;28;20038;-52
2022/08/12 05:26:05;;;;;;;8.13;1.58;;;18.10;99.90;;;;;;5006277;28;20497;-54
2022/08/12 05:28:31;;;;;;;3.60;1.65;;;18.20;99.90;;;;;;4998066;28;20124;-51
2022/08/12 05:31:00;;;;;;;2.53;2.05;;;18.20;99.90;;;;;;5007694;28;20136;-57
2022/08/12 05:33:36;;;;;;;6.65;1.40;;;18.30;99.90;;;;;;5023927;28;20049;-65
2022/08/12 05:36:06;;;;;;;3.08;1.60;;;18.30;99.90;;;;;;5026044;28;20099;-61
2022/08/12 05:41:20;;;;;;;8.68;2.15;;;18.50;99.90;;;;;;5025203;28;20085;-51
2022/08/12 05:43:50;;;;;;;2.87;1.40;;;18.60;99.90;;;;;;5025861;28;20053;-55
2022/08/12 05:46:17;;;;;;;5.25;1.90;;;18.70;99.90;;;;;;5006998;28;20054;-57
2022/08/12 05:48:42;;;;;;;8.27;1.80;;;18.80;99.90;;;;;;5025169;28;20523;-56
2022/08/12 05:51:10;;;;;;;14.27;1.65;;;18.90;99.90;;;;;;5025007;28;20073;-57
2022/08/12 05:53:40;;;;;;;2.58;1.60;;;18.90;99.90;;;;;;5027954;28;20124;-56
2022/08/12 05:56:06;;;;;;;5.93;1.58;;;18.90;99.90;;;;;;5028999;28;20048;-54
2022/08/12 05:58:33;;;;;;;1.92;1.50;;;19.10;99.90;;;;;;5006659;28;20049;-57
2022/08/12 06:01:00;;;;;;;4.78;1.92;;;19.10;99.90;;;;;;5001733;28;20492;-52
2022/08/12 06:03:26;;;;;;;7.10;1.70;;;19.20;99.90;;;;;;5028264;28;20408;-54
2022/08/12 06:05:51;;;;;;;4.88;1.80;;;19.20;99.90;;;;;;5029343;28;20053;-52
2022/08/12 06:08:18;;;;;;;8.35;1.80;;;19.30;99.90;;;;;;5022633;28;20570;-52
2022/08/12 06:10:48;;;;;;;7.72;1.73;;;19.40;99.90;;;;;;5029196;28;20100;-52
2022/08/12 06:13:14;;;;;;;5.57;1.60;;;19.40;99.90;;;;;;5028542;28;20046;-57
2022/08/12 06:15:40;;;;;;;5.65;1.70;;;19.50;99.90;;;;;;5028942;28;20506;-53
2022/08/12 06:18:09;;;;;;;5.10;1.85;;;19.60;99.90;;;;;;5028947;28;20116;-58
2022/08/12 06:20:37;;;;;;;11.17;2.33;;;19.60;99.90;;;;;;5028408;28;20053;-51
2022/08/12 06:23:04;;;;;;;2.35;1.58;;;19.70;99.90;;;;;;5028908;28;20292;-52
2022/08/12 06:25:30;;;;;;;8.50;1.85;;;19.80;99.90;;;;;;5027619;28;20476;-50
2022/08/12 06:27:57;;;;;;;6.38;2.00;;;19.90;99.90;;;;;;5029028;28;20091;-53
2022/08/12 06:30:25;;;;;;;3.70;1.85;;;20.00;99.90;;;;;;5026426;28;20060;-52
2022/08/12 06:32:51;;;;;;;6.70;2.50;;;20.00;99.90;;;;;;5028575;28;20045;-58
2022/08/12 06:35:18;;;;;;;4.22;2.05;;;20.10;99.90;;;;;;5028661;28;20049;-65
2022/08/12 06:37:49;;;;;;;8.15;2.65;;;20.10;99.90;;;;;;5027957;28;20041;-65
2022/08/12 06:42:46;;;;;;;9.35;2.13;;;20.20;99.90;;;;;;5028272;28;20107;-55
2022/08/12 06:43:01;;;;;;;3.80;1.70;;;20.20;99.90;;;;;;5027820;28;20053;-53
2022/08/12 06:45:27;;;;;;;3.75;1.60;;;20.30;99.90;;;;;;5028539;28;20164;-48
2022/08/12 06:47:53;;;;;;;2.67;1.98;;;20.40;98.90;;;;;;5027030;28;20092;-63
2022/08/12 06:50:19;;;;;;;2.47;1.30;;;20.40;99.90;;;;;;5026268;28;20037;-59
2022/08/12 06:52:45;;;;;;;3.10;1.50;;;20.40;98.90;;;;;;5026321;28;20053;-62
2022/08/12 06:55:19;;;;;;;8.45;2.03;;;20.50;98.90;;;;;;5027272;28;20491;-57
2022/08/12 06:57:53;;;;;;;4.53;1.77;;;20.60;99.90;;;;;;5010798;28;20053;-58
2022/08/12 07:00:25;;;;;;;6.65;1.65;;;20.70;99.40;;;;;;5026973;28;20124;-51
2022/08/12 07:02:53;;;;;;;8.18;2.00;;;20.80;96.30;;;;;;4987402;28;20042;-56
2022/08/12 07:05:23;;;;;;;6.47;1.80;;;20.90;99.00;;;;;;5006345;28;20049;-54
2022/08/12 07:07:52;;;;;;;11.45;2.13;;;21.00;99.90;;;;;;5028139;28;20381;-57
2022/08/12 07:10:21;;;;;;;11.05;2.20;;;21.20;99.90;;;;;;5026243;28;20049;-57
2022/08/12 07:12:53;;;;;;;5.57;2.45;;;21.40;99.90;;;;;;5026910;28;20037;-57
2022/08/12 07:15:25;;;;;;;8.73;2.13;;;21.60;99.90;;;;;;5027490;28;20393;-60
2022/08/12 07:20:43;;;;;;;10.80;2.63;;;21.90;96.50;;;;;;5026126;28;20064;-62
2022/08/12 07:23:10;;;;;;;5.60;1.77;;;22.20;93.60;;;;;;5025405;28;20041;-60
2022/08/12 07:25:38;;;;;;;5.53;1.80;;;22.40;90.70;;;;;;5026715;28;20082;-58
2022/08/12 07:28:26;;;;;;;17.23;2.10;;;22.70;94.80;;;;;;5006443;28;20046;-55
2022/08/12 07:30:54;;;;;;;5.82;2.58;;;23.00;85.50;;;;;;5021644;28;20045;-52
2022/08/12 07:33:22;;;;;;;7.65;2.03;;;23.30;78.70;;;;;;5022790;28;20053;-55
2022/08/12 07:35:51;;;;;;;7.33;2.23;;;23.60;87.60;;;;;;5022820;28;20548;-53
2022/08/12 07:38:26;;;;;;;5.30;2.28;;;23.90;83.00;;;;;;5026376;28;20081;-62
2022/08/12 07:41:02;;;;;;;19.80;2.25;;;24.20;68.20;;;;;;5028035;28;20064;-47
2022/08/12 07:43:28;;;;;;;5.28;2.20;;;24.40;53.30;;;;;;5024889;28;20136;-53
2022/08/12 07:45:55;;;;;;;10.38;2.38;;;24.50;51.20;;;;;;5027342;28;20065;-55
2022/08/12 07:48:23;;;;;;;7.25;2.05;;;24.80;49.50;;;;;;5025752;28;20498;-49
2022/08/12 07:50:49;;;;;;;14.30;2.70;;;24.90;48.90;;;;;;5026731;28;20053;-56
2022/08/12 07:53:15;;;;;;;10.93;1.80;;;25.00;47.10;;;;;;5026256;28;20050;-58
2022/08/12 07:55:41;;;;;;;9.25;1.83;;;25.10;48.00;;;;;;5007954;28;20158;-58
2022/08/12 07:58:07;;;;;;;6.85;1.52;;;25.00;49.00;;;;;;5025681;28;20527;-57
2022/08/12 08:00:36;;;;;;;4.70;1.77;;;25.20;48.20;;;;;;5024883;28;20183;-63
2022/08/12 08:03:02;;;;;;;6.27;1.93;;;25.10;36.30;;;;;;5009051;28;20057;-56
2022/08/12 08:05:45;;;;;;;4.20;1.40;;;25.10;41.70;;;;;;5004700;28;20371;-55
2022/08/12 08:08:20;;;;;;;7.47;1.60;;;25.20;46.90;;;;;;5021626;28;20468;-62
2022/08/12 08:10:47;;;;;;;5.43;1.52;;;25.50;43.50;;;;;;5007450;28;20103;-60
2022/08/12 08:13:15;;;;;;;3.17;1.60;;;25.60;35.60;;;;;;5017745;28;20092;-62
2022/08/12 08:15:44;;;;;;;4.53;1.65;;;25.60;31.20;;;;;;5023281;28;20547;-56
2022/08/12 08:18:12;;;;;;;5.78;1.95;;;25.50;41.60;;;;;;5006066;28;20053;-62
2022/08/12 08:20:40;;;;;;;2.85;1.60;;;25.70;47.90;;;;;;5023557;28;20085;-55
2022/08/12 08:23:15;;;;;;;3.07;1.73;;;25.80;53.20;;;;;;5024499;28;20041;-53
2022/08/12 08:25:43;;;;;;;4.93;1.70;;;25.80;40.20;;;;;;5021895;28;20304;-64
2022/08/12 08:28:11;;;;;;;4.45;1.63;;;25.80;40.20;;;;;;5023997;28;20508;-56
2022/08/12 08:30:43;;;;;;;5.53;2.15;;;25.90;40.20;;;;;;5000327;28;20069;-61
2022/08/12 08:33:10;;;;;;;5.78;2.00;;;25.90;47.70;;;;;;5025599;28;20168;-61
2022/08/12 08:35:40;;;;;;;9.10;1.75;;;25.80;43.60;;;;;;5024756;28;20157;-52
2022/08/12 08:38:14;;;;;;;7.05;1.73;;;25.90;44.50;;;;;;5021215;28;20060;-54
2022/08/12 08:43:31;;;;;;;7.00;1.95;;;26.10;42.50;;;;;;5023870;28;20079;-57
2022/08/12 08:46:04;;;;;;;8.75;1.80;;;26.30;39.90;;;;;;5025331;28;21377;-66
2022/08/12 08:48:33;;;;;;;6.93;2.15;;;26.30;36.40;;;;;;5023077;28;20057;-63
2022/08/12 08:51:01;;;;;;;5.55;2.33;;;26.20;37.70;;;;;;5017231;28;20046;-66
2022/08/12 08:53:27;;;;;;;7.43;1.77;;;25.90;41.70;;;;;;5023362;28;20112;-64
2022/08/12 08:55:54;;;;;;;4.15;2.03;;;25.80;47.60;;;;;;5021263;28;20042;-56
2022/08/12 08:58:20;;;;;;;4.97;1.95;;;25.80;42.80;;;;;;5022288;28;20467;-59
2022/08/12 09:00:49;;;;;;;2.00;1.80;;;25.80;46.80;;;;;;5020211;28;20053;-58
2022/08/12 09:03:17;;;;;;;10.32;2.25;;;26.00;43.00;;;;;;5019628;28;20053;-61
2022/08/12 09:05:43;;;;;;;2.38;1.55;;;26.10;31.70;;;;;;5007891;28;20103;-58
2022/08/12 09:08:10;;;;;;;13.02;2.20;;;26.30;35.60;;;;;;5016823;28;20100;-66
2022/08/12 09:10:37;;;;;;;6.05;2.00;;;26.60;22.80;;;;;;5010410;28;20052;-51
2022/08/12 09:15:48;;;;;;;4.88;1.20;;;26.80;26.90;;;;;;5024555;28;20053;-60
2022/08/12 09:18:17;;;;;;;3.80;1.45;;;26.90;13.90;;;;;;5022902;28;20435;-60
2022/08/12 09:20:43;;;;;;;8.40;1.38;;;27.10;13.40;;;;;;5023126;28;20053;-64
2022/08/12 09:23:11;;;;;;;9.13;1.58;;;27.20;11.20;;;;;;5022120;28;20438;-61
2022/08/12 09:25:43;;;;;;;5.10;1.63;;;27.30;13.00;;;;;;4989364;28;20073;-56
2022/08/12 09:28:10;;;;;;;11.10;1.77;;;27.50;12.40;;;;;;4998136;28;20060;-66
2022/08/12 09:30:38;;;;;;;2.45;1.33;;;27.60;9.10;;;;;;5007708;28;20056;-66
2022/08/12 09:33:05;;;;;;;6.03;1.63;;;27.90;6.80;;;;;;5028070;28;20043;-58
2022/08/12 09:35:33;;;;;;;8.07;1.48;;;28.10;4.70;;;;;;5028107;28;20042;-58
2022/08/12 09:38:01;;;;;;;6.73;1.63;;;28.20;6.20;;;;;;5029943;28;20068;-58
2022/08/12 09:40:28;;;;;;;8.90;1.60;;;28.20;4.60;;;;;;5021096;28;20041;-52
2022/08/12 09:45:48;;;;;;;5.13;1.30;;;28.50;3.60;;;;;;5026593;28;20774;-55
2022/08/12 09:48:18;;;;;;;6.30;1.60;;;28.60;1.00;;;;;;5011133;28;20050;-61
2022/08/12 09:50:48;;;;;;;5.25;1.27;;;28.70;1.00;;;;;;5026819;28;20050;-57
2022/08/12 09:53:16;;;;;;;7.65;1.70;;;28.70;1.00;;;;;;4993870;28;20049;-54
2022/08/12 09:55:47;;;;;;;7.03;1.48;;;28.70;1.00;;;;;;5006417;28;20053;-56
2022/08/12 09:58:16;;;;;;;2.00;1.40;;;28.80;1.00;;;;;;5011896;28;20874;-50
2022/08/12 10:00:46;;;;;;;7.88;1.38;;;28.90;1.00;;;;;;5023928;28;20045;-58
2022/08/12 10:03:15;;;;;;;12.20;1.75;;;29.10;1.00;;;;;;5002866;28;20061;-55
2022/08/12 10:05:42;;;;;;;;;;;29.20;1.00;;;;;;5023194;28;20061;-56
2022/08/12 10:08:10;;;;;;;6.43;1.25;;;29.30;1.00;;;;;;4998880;28;20376;-58
2022/08/12 10:13:42;;;;;;;2.92;1.60;;;29.00;1.00;;;;;;5020893;28;20061;-65
2022/08/12 10:16:11;;;;;;;5.63;1.40;;;28.90;1.00;;;;;;5024468;28;20044;-61
2022/08/12 10:18:43;;;;;;;2.85;1.38;;;28.90;1.00;;;;;;5009776;28;20053;-66
2022/08/12 10:21:12;;;;;;;1.83;1.30;;;29.10;1.00;;;;;;4993443;28;20511;-67
2022/08/12 10:23:44;;;;;;;7.90;1.30;;;29.10;1.00;;;;;;5024414;28;20045;-62
2022/08/12 10:31:44;;;;;;;3.63;1.27;;;29.50;1.00;;;;;;5023718;28;20045;-63
2022/08/12 10:34:12;;;;;;;4.00;1.30;;;29.20;1.00;;;;;;5005295;28;20042;-63
2022/08/12 10:36:39;;;;;;;3.85;1.20;;;28.90;1.00;;;;;;5024506;28;20053;-57
2022/08/12 10:39:11;;;;;;;8.45;1.25;;;28.90;1.00;;;;;;5023094;28;20710;-67
2022/08/12 10:44:22;;;;;;;4.50;1.50;;;29.10;1.00;;;;;;5024851;28;20152;-62
2022/08/12 10:46:50;;;;;;;2.03;1.30;;;29.00;1.00;;;;;;5025607;28;20086;-61
2022/08/12 10:49:19;;;;;;;7.53;1.73;;;28.90;1.00;;;;;;5025080;28;20059;-55
2022/08/12 10:51:48;;;;;;;3.15;1.27;;;28.80;1.00;;;;;;5006260;28;20064;-63
2022/08/12 10:54:15;;;;;;;5.38;1.27;;;28.80;1.00;;;;;;5009160;28;20042;-60
2022/08/12 10:56:44;;;;;;;3.85;1.20;;;28.70;1.00;;;;;;5008639;28;20079;-62
2022/08/12 10:59:10;;;;;;;3.22;1.20;;;28.70;1.00;;;;;;5028028;28;20645;-59
2022/08/12 11:01:35;;;;;;;4.18;1.10;;;28.70;1.00;;;;;;5005612;28;20151;-62
2022/08/12 11:04:04;;;;;;;4.60;1.10;;;28.70;1.00;;;;;;4993848;28;20098;-65
2022/08/12 11:06:29;;;;;;;6.07;1.17;;;28.80;1.00;;;;;;5005822;28;20066;-67
2022/08/12 11:08:55;;;;;;;6.03;1.20;;;28.70;1.00;;;;;;5008201;28;20049;-63
2022/08/12 11:11:21;;;;;;;2.58;1.13;;;28.70;1.00;;;;;;5008929;28;20119;-63
2022/08/12 11:13:47;;;;;;;7.57;1.27;;;28.60;1.00;;;;;;5025097;28;20671;-62
2022/08/12 11:16:16;;;;;;;5.13;1.27;;;28.50;1.00;;;;;;5009276;28;20038;-56
2022/08/12 11:18:42;;;;;;;11.82;1.30;;;28.60;1.00;;;;;;5026097;28;20038;-60
2022/08/12 11:21:08;;;;;;;1.70;1.00;;;28.60;1.00;;;;;;5009544;28;20490;-55
2022/08/12 11:23:34;;;;;;;6.15;1.30;;;28.60;2.20;;;;;;5025529;28;20052;-61
2022/08/12 11:26:00;;;;;;;10.02;1.20;;;28.70;1.00;;;;;;5025374;28;20071;-64
2022/08/12 11:28:26;;;;;;;3.05;1.00;;;28.70;1.00;;;;;;5025960;28;20052;-56
2022/08/12 11:30:52;;;;;;;6.70;1.00;;;28.60;1.00;;;;;;5025299;28;20056;-54
2022/08/12 11:33:17;;;;;;;2.22;0.95;;;28.50;1.00;;;;;;5025772;28;20041;-53
2022/08/12 11:35:43;;;;;;;3.95;1.05;;;28.60;1.00;;;;;;5025996;28;20060;-62
2022/08/12 11:38:09;;;;;;;3.17;0.80;;;28.60;1.00;;;;;;5010025;28;20116;-60
2022/08/12 11:40:36;;;;;;;4.80;1.08;;;28.70;1.00;;;;;;5021102;28;20390;-59
2022/08/12 11:43:02;;;;;;;1.63;1.02;;;28.80;1.00;;;;;;5006124;28;20610;-62
2022/08/12 11:45:28;;;;;;;3.50;0.80;;;29.00;1.00;;;;;;5017218;28;20049;-53
2022/08/12 11:47:55;;;;;;;2.15;0.75;;;29.20;1.00;;;;;;5025783;28;20574;-52
2022/08/12 11:50:21;;;;;;;3.70;0.85;;;29.30;1.00;;;;;;5024690;28;20120;-61
2022/08/12 11:52:49;;;;;;;6.13;1.00;;;29.30;1.00;;;;;;5025993;28;20077;-60
2022/08/12 11:55:14;;;;;;;6.45;0.95;;;29.20;1.00;;;;;;5008765;28;20041;-64
2022/08/12 11:57:58;;;;;;;1.75;0.85;;;29.20;1.00;;;;;;5022288;28;20558;-60
2022/08/12 12:00:25;;;;;;;5.43;1.05;;;29.10;1.00;;;;;;5007285;28;20396;-56
2022/08/12 12:02:50;;;;;;;3.50;1.30;;;29.00;1.00;;;;;;5025565;28;20567;-56
2022/08/12 12:05:16;;;;;;;6.00;1.00;;;29.00;1.00;;;;;;5023304;28;20062;-61
2022/08/12 12:07:44;;;;;;;6.82;1.00;;;28.90;1.00;;;;;;5006285;28;20061;-65
2022/08/12 12:10:14;;;;;;;3.65;0.70;;;28.90;1.00;;;;;;5006018;28;20038;-61
2022/08/12 12:12:41;;;;;;;9.55;0.93;;;29.00;1.00;;;;;;5007116;28;20046;-62
2022/08/12 12:15:07;;;;;;;4.63;0.80;;;29.00;1.00;;;;;;5004682;28;20049;-60
2022/08/12 12:17:37;;;;;;;1.90;0.98;;;29.10;1.00;;;;;;5006983;28;20075;-56
2022/08/12 12:20:07;;;;;;;4.53;0.93;;;29.20;1.00;;;;;;5006098;28;20108;-53
2022/08/12 12:22:33;;;;;;;8.25;1.00;;;29.40;1.00;;;;;;4970262;28;20038;-61
2022/08/12 12:24:59;;;;;;;5.70;0.70;;;29.40;1.00;;;;;;5005490;28;20476;-66
2022/08/12 12:27:25;;;;;;;5.00;0.85;;;29.40;1.00;;;;;;5000511;28;20037;-60
2022/08/12 12:29:51;;;;;;;0.68;0.68;;;29.40;1.00;;;;;;5003318;28;20432;-60
2022/08/12 12:32:18;;;;;;;2.70;0.95;;;29.30;1.00;;;;;;5000313;28;20204;-57
2022/08/12 12:34:45;;;;;;;0.60;0.60;;;29.30;1.00;;;;;;5004040;28;20387;-59
2022/08/12 12:37:12;;;;;;;6.28;0.80;;;29.30;1.00;;;;;;4997543;28;20065;-63
2022/08/12 12:39:39;;;;;;;1.10;0.77;;;29.30;1.00;;;;;;4990450;28;20050;-68
2022/08/12 12:42:05;;;;;;;1.02;0.70;;;29.20;1.00;;;;;;4981928;28;20038;-64
2022/08/12 12:44:32;;;;;;;8.45;0.90;;;29.30;1.00;;;;;;5003390;28;20069;-60
2022/08/12 12:46:57;;;;;;;2.70;0.85;;;29.20;1.00;;;;;;4969680;28;20053;-63
2022/08/12 12:49:23;;;;;;;5.28;0.80;;;29.20;1.00;;;;;;5002838;28;20054;-60
2022/08/12 12:51:49;;;;;;;5.10;0.90;;;29.20;1.00;;;;;;4968947;28;20108;-58
2022/08/12 12:54:14;;;;;;;1.63;0.80;;;29.10;1.00;;;;;;5005584;28;20060;-67
2022/08/12 12:56:41;;;;;;;1.85;0.88;;;29.00;1.00;;;;;;4981420;28;20081;-59
2022/08/12 12:59:07;;;;;;;13.55;5.43;;;29.10;1.00;;;;;;4981965;28;20060;-68
2022/08/12 13:01:37;;;;;;;4.20;2.33;;;29.10;1.00;;;;;;5000475;28;20136;-68
2022/08/12 13:04:06;;;;;;;8.88;3.33;;;29.10;1.00;;;;;;5005505;28;20133;-61
2022/08/12 13:06:32;;;;;;;6.03;1.88;;;29.10;1.00;;;;;;5004218;28;20045;-64
2022/08/12 13:09:00;;;;;;;11.00;2.63;;;29.20;1.00;;;;;;5029169;28;20817;-67
2022/08/12 13:11:28;;;;;;;4.07;1.35;;;29.20;1.00;;;;;;5011783;28;20053;-66
2022/08/12 13:13:55;;;;;;;;;;;29.20;1.00;;;;;;5030542;28;20045;-65
2022/08/12 13:16:21;;;;;;;1.38;1.00;;;29.20;1.00;;;;;;5016946;28;19921;-64
2022/08/12 13:18:53;;;;;;;1.55;1.00;;;29.10;1.00;;;;;;5023390;28;20052;-64
2022/08/12 13:21:19;;;;;;;2.60;1.10;;;28.90;1.00;;;;;;4994098;28;20331;-68
2022/08/12 13:23:47;;;;;;;8.18;1.58;;;28.60;1.00;;;;;;5028164;28;20045;-60
2022/08/12 13:26:18;;;;;;;4.47;0.80;;;28.40;1.00;;;;;;5021584;28;20041;-66
2022/08/12 13:28:46;;;;;;;3.80;1.02;;;28.30;1.00;;;;;;5023741;28;20042;-61
2022/08/12 13:31:15;;;;;;;;;;;28.20;1.00;;;;;;5024379;28;20049;-65
2022/08/12 13:33:41;;;;;;;47.17;5.60;;;28.20;1.00;;;;;;5025438;28;20328;-65
2022/08/12 13:36:09;;;;;;;4.25;0.88;;;28.20;1.00;;;;;;5022626;28;20053;-61
2022/08/12 13:38:43;;;;;;;5.10;1.00;;;28.30;1.00;;;;;;5005591;28;20052;-67
2022/08/12 13:41:31;;;;;;;3.33;0.93;;;28.40;1.00;;;;;;5017107;28;20053;-62
2022/08/12 13:43:58;;;;;;;;;;;28.50;1.00;;;;;;5020558;28;20571;-67
2022/08/12 13:46:24;;;;;;;1.60;0.70;;;28.60;1.00;;;;;;5001328;28;20048;-63
2022/08/12 13:48:51;;;;;;;8.40;0.90;;;28.50;1.00;;;;;;5009106;28;20044;-65
2022/08/12 13:51:17;;;;;;;3.83;1.10;;;28.40;1.00;;;;;;5022091;28;20600;-60
2022/08/12 13:53:42;;;;;;;8.05;1.75;;;28.40;1.00;;;;;;5006669;28;20097;-67
2022/08/12 13:56:10;;;;;;;5.40;0.90;;;28.30;1.00;;;;;;5001829;28;20172;-67
2022/08/12 13:58:41;;;;;;;2.97;0.80;;;28.30;1.00;;;;;;5011330;28;20049;-56
2022/08/12 14:01:06;;;;;;;7.15;1.00;;;28.20;1.00;;;;;;4990041;28;20046;-67
2022/08/12 14:03:32;;;;;;;1.15;0.70;;;28.10;1.00;;;;;;5028449;28;20179;-67
2022/08/12 14:06:03;;;;;;;4.38;1.13;;;28.10;1.00;;;;;;5010082;28;20480;-69
2022/08/12 14:08:29;;;;;;;6.93;0.90;;;28.10;1.00;;;;;;5010656;28;20038;-70
2022/08/12 14:10:56;;;;;;;6.28;0.90;;;28.10;1.00;;;;;;5024595;28;20041;-67
2022/08/12 14:13:26;;;;;;;1.52;0.88;;;28.10;1.00;;;;;;4991338;28;20045;-70
2022/08/12 14:15:58;;;;;;;3.97;0.90;;;28.20;1.00;;;;;;5025573;28;20053;-64
2022/08/12 14:18:29;;;;;;;5.60;1.48;;;28.30;1.00;;;;;;5026941;28;20102;-69
2022/08/12 14:21:00;;;;;;;2.05;0.85;;;28.30;1.00;;;;;;5025587;28;20049;-64
2022/08/12 14:23:34;;;;;;;1.63;0.90;;;28.40;1.00;;;;;;5024416;28;20037;-64
2022/08/12 14:26:04;;;;;;;1.75;1.00;;;28.40;1.00;;;;;;5008208;28;20106;-69
2022/08/12 14:28:33;;;;;;;2.92;0.75;;;28.50;1.00;;;;;;5022826;28;20041;-63
2022/08/12 14:31:01;;;;;;;5.85;0.88;;;28.50;1.00;;;;;;5006420;28;20407;-67
2022/08/12 14:33:32;;;;;;;4.50;0.90;;;28.50;1.00;;;;;;5005717;28;20056;-64
2022/08/12 14:36:03;;;;;;;6.22;1.40;;;28.50;1.00;;;;;;5027454;28;20045;-59
2022/08/12 14:38:40;;;;;;;3.53;0.90;;;28.50;1.00;;;;;;5010615;28;20124;-63
2022/08/12 14:41:09;;;;;;;1.95;0.73;;;28.60;1.00;;;;;;5026213;28;20602;-58
2022/08/12 14:43:39;;;;;;;2.28;0.90;;;28.50;1.00;;;;;;5026168;28;20403;-65
2022/08/12 14:46:14;;;;;;;3.17;0.80;;;28.60;1.00;;;;;;5026137;28;20044;-60